KHYI

San Marcos Regional Airport

Austin, Texas, USA
METAR KHYI 151856Z 20013KT 10SM CLR 28/13 A2974 RMK AO2 SLP062 T02830128
Observed Flight Rules
Feb-15 @ 18:56 UTC (13 minutes ago) Visual Flight Rules
Wind Visibility Clouds
200° at 13 knots 10 miles
  • Clear skies
Temperatures Readings
Current 28°C / 82°F
Dewpoint 13°C / 55°F
Humidity 40%
Altimeter 29.74" Hg
Pressure 1006.2 hPa
Elevation 182
METAR KHYI 151856Z 20013KT 10SM CLR 28/13 A2974 RMK AO2 SLP062 T02830128
Observed Flight Rules
Feb-15 @ 18:56 UTC
(13 minutes ago)
VFR
Wind Visibility
200° at 13 knots 10 miles
Clouds
  • Clear skies
Temperature Dewpoint
28°C / 82°F 13°C / 55°F
Humidity Altimeter Pressure
40% 29.74" Hg 1006.2 hPa